sensor_id;sensor_type;location;lat;lon;timestamp;P1;durP1;ratioP1;P2;durP2;ratioP2
12966;SDS011;6548;49.996;8.238;2022-10-31T00:01:32;22.48;;;13.98;;
12966;SDS011;6548;49.996;8.238;2022-10-31T00:03:59;26.63;;;15.27;;
12966;SDS011;6548;49.996;8.238;2022-10-31T00:06:25;28.40;;;15.43;;
12966;SDS011;6548;49.996;8.238;2022-10-31T00:08:58;21.85;;;14.00;;
12966;SDS011;6548;49.996;8.238;2022-10-31T00:11:25;24.58;;;14.23;;
12966;SDS011;6548;49.996;8.238;2022-10-31T00:13:51;21.00;;;14.02;;
12966;SDS011;6548;49.996;8.238;2022-10-31T00:16:21;25.17;;;15.52;;
12966;SDS011;6548;49.996;8.238;2022-10-31T00:18:49;22.60;;;14.47;;
12966;SDS011;6548;49.996;8.238;2022-10-31T00:21:22;21.30;;;14.20;;
12966;SDS011;6548;49.996;8.238;2022-10-31T00:23:49;19.55;;;12.63;;
12966;SDS011;6548;49.996;8.238;2022-10-31T00:26:14;29.90;;;14.05;;
12966;SDS011;6548;49.996;8.238;2022-10-31T00:28:40;20.08;;;12.85;;
12966;SDS011;6548;49.996;8.238;2022-10-31T00:31:07;22.70;;;13.43;;
12966;SDS011;6548;49.996;8.238;2022-10-31T00:33:34;19.98;;;13.50;;
12966;SDS011;6548;49.996;8.238;2022-10-31T00:36:01;18.27;;;12.55;;
12966;SDS011;6548;49.996;8.238;2022-10-31T00:38:27;19.20;;;13.13;;
12966;SDS011;6548;49.996;8.238;2022-10-31T00:40:53;22.45;;;14.20;;
12966;SDS011;6548;49.996;8.238;2022-10-31T00:43:19;22.20;;;12.85;;
12966;SDS011;6548;49.996;8.238;2022-10-31T00:45:44;21.52;;;12.90;;
12966;SDS011;6548;49.996;8.238;2022-10-31T00:48:10;19.52;;;12.27;;
12966;SDS011;6548;49.996;8.238;2022-10-31T00:50:36;22.13;;;12.98;;
12966;SDS011;6548;49.996;8.238;2022-10-31T00:53:02;19.48;;;12.00;;
12966;SDS011;6548;49.996;8.238;2022-10-31T00:55:28;20.73;;;12.40;;
12966;SDS011;6548;49.996;8.238;2022-10-31T00:57:54;19.63;;;12.18;;
12966;SDS011;6548;49.996;8.238;2022-10-31T01:00:19;21.05;;;11.77;;
12966;SDS011;6548;49.996;8.238;2022-10-31T01:02:45;19.27;;;12.30;;
12966;SDS011;6548;49.996;8.238;2022-10-31T01:05:10;19.42;;;12.30;;
12966;SDS011;6548;49.996;8.238;2022-10-31T01:07:37;15.20;;;11.77;;
12966;SDS011;6548;49.996;8.238;2022-10-31T01:10:04;19.70;;;11.65;;
12966;SDS011;6548;49.996;8.238;2022-10-31T01:12:35;16.83;;;10.98;;
12966;SDS011;6548;49.996;8.238;2022-10-31T01:15:05;17.77;;;11.02;;
12966;SDS011;6548;49.996;8.238;2022-10-31T01:17:32;20.02;;;11.70;;
12966;SDS011;6548;49.996;8.238;2022-10-31T01:19:57;19.17;;;10.82;;
12966;SDS011;6548;49.996;8.238;2022-10-31T01:22:23;19.35;;;10.75;;
12966;SDS011;6548;49.996;8.238;2022-10-31T01:24:49;17.65;;;9.98;;
12966;SDS011;6548;49.996;8.238;2022-10-31T01:27:14;13.43;;;9.68;;
12966;SDS011;6548;49.996;8.238;2022-10-31T01:29:40;17.85;;;10.32;;
12966;SDS011;6548;49.996;8.238;2022-10-31T01:32:05;21.42;;;11.05;;
12966;SDS011;6548;49.996;8.238;2022-10-31T01:34:31;18.15;;;11.15;;
12966;SDS011;6548;49.996;8.238;2022-10-31T01:36:56;18.77;;;10.48;;
12966;SDS011;6548;49.996;8.238;2022-10-31T01:39:22;18.90;;;11.45;;
12966;SDS011;6548;49.996;8.238;2022-10-31T01:41:49;17.83;;;11.85;;
12966;SDS011;6548;49.996;8.238;2022-10-31T01:49:17;17.13;;;10.27;;
12966;SDS011;6548;49.996;8.238;2022-10-31T01:51:55;23.50;;;11.52;;
12966;SDS011;6548;49.996;8.238;2022-10-31T01:54:26;19.73;;;9.63;;
12966;SDS011;6548;49.996;8.238;2022-10-31T01:56:58;14.20;;;9.23;;
12966;SDS011;6548;49.996;8.238;2022-10-31T01:59:25;20.15;;;10.52;;
12966;SDS011;6548;49.996;8.238;2022-10-31T02:01:54;15.38;;;9.95;;
12966;SDS011;6548;49.996;8.238;2022-10-31T02:04:20;14.43;;;8.85;;
12966;SDS011;6548;49.996;8.238;2022-10-31T02:06:50;13.18;;;9.05;;
12966;SDS011;6548;49.996;8.238;2022-10-31T02:09:24;18.92;;;10.50;;
12966;SDS011;6548;49.996;8.238;2022-10-31T02:11:51;15.82;;;9.35;;
12966;SDS011;6548;49.996;8.238;2022-10-31T02:14:21;13.77;;;9.68;;
12966;SDS011;6548;49.996;8.238;2022-10-31T02:16:48;18.63;;;10.55;;
12966;SDS011;6548;49.996;8.238;2022-10-31T02:19:21;17.40;;;11.27;;
12966;SDS011;6548;49.996;8.238;2022-10-31T02:21:58;18.63;;;10.13;;
12966;SDS011;6548;49.996;8.238;2022-10-31T02:37:57;14.65;;;8.95;;
12966;SDS011;6548;49.996;8.238;2022-10-31T02:40:25;15.55;;;8.98;;
12966;SDS011;6548;49.996;8.238;2022-10-31T02:43:06;15.82;;;9.20;;
12966;SDS011;6548;49.996;8.238;2022-10-31T02:48:36;13.20;;;9.00;;
12966;SDS011;6548;49.996;8.238;2022-10-31T02:51:04;18.15;;;9.43;;
12966;SDS011;6548;49.996;8.238;2022-10-31T02:53:34;15.30;;;8.73;;
12966;SDS011;6548;49.996;8.238;2022-10-31T02:56:05;13.90;;;8.10;;
12966;SDS011;6548;49.996;8.238;2022-10-31T02:58:43;17.75;;;8.63;;
12966;SDS011;6548;49.996;8.238;2022-10-31T03:03:54;15.52;;;8.68;;
12966;SDS011;6548;49.996;8.238;2022-10-31T03:09:22;13.88;;;7.70;;
12966;SDS011;6548;49.996;8.238;2022-10-31T03:12:44;15.00;;;8.27;;
12966;SDS011;6548;49.996;8.238;2022-10-31T03:20:27;16.50;;;8.27;;
12966;SDS011;6548;49.996;8.238;2022-10-31T03:23:06;21.73;;;8.50;;
12966;SDS011;6548;49.996;8.238;2022-10-31T03:25:36;12.90;;;8.20;;
12966;SDS011;6548;49.996;8.238;2022-10-31T03:28:04;10.98;;;7.15;;
12966;SDS011;6548;49.996;8.238;2022-10-31T03:30:32;13.63;;;8.40;;
12966;SDS011;6548;49.996;8.238;2022-10-31T03:33:01;12.35;;;7.97;;
12966;SDS011;6548;49.996;8.238;2022-10-31T03:35:31;17.35;;;8.60;;
12966;SDS011;6548;49.996;8.238;2022-10-31T03:37:58;12.95;;;8.38;;
12966;SDS011;6548;49.996;8.238;2022-10-31T03:40:26;13.38;;;7.63;;
12966;SDS011;6548;49.996;8.238;2022-10-31T03:43:00;13.90;;;8.40;;
12966;SDS011;6548;49.996;8.238;2022-10-31T03:45:32;14.23;;;7.82;;
12966;SDS011;6548;49.996;8.238;2022-10-31T03:48:02;17.02;;;8.50;;
12966;SDS011;6548;49.996;8.238;2022-10-31T03:50:31;16.00;;;9.80;;
12966;SDS011;6548;49.996;8.238;2022-10-31T03:53:10;20.70;;;10.48;;
12966;SDS011;6548;49.996;8.238;2022-10-31T03:55:49;12.02;;;8.77;;
12966;SDS011;6548;49.996;8.238;2022-10-31T03:58:23;15.07;;;9.25;;
12966;SDS011;6548;49.996;8.238;2022-10-31T04:00:52;15.70;;;8.35;;
12966;SDS011;6548;49.996;8.238;2022-10-31T04:03:22;13.25;;;8.30;;
12966;SDS011;6548;49.996;8.238;2022-10-31T04:05:52;15.05;;;8.55;;
12966;SDS011;6548;49.996;8.238;2022-10-31T04:08:20;13.93;;;9.35;;
12966;SDS011;6548;49.996;8.238;2022-10-31T04:10:51;11.90;;;8.98;;
12966;SDS011;6548;49.996;8.238;2022-10-31T04:13:21;15.23;;;8.88;;
12966;SDS011;6548;49.996;8.238;2022-10-31T04:15:51;12.52;;;8.18;;
12966;SDS011;6548;49.996;8.238;2022-10-31T04:18:19;14.63;;;8.35;;
12966;SDS011;6548;49.996;8.238;2022-10-31T04:20:44;13.35;;;8.02;;
12966;SDS011;6548;49.996;8.238;2022-10-31T04:23:20;13.00;;;9.00;;
12966;SDS011;6548;49.996;8.238;2022-10-31T04:25:49;13.27;;;8.15;;
12966;SDS011;6548;49.996;8.238;2022-10-31T04:28:15;12.43;;;8.68;;
12966;SDS011;6548;49.996;8.238;2022-10-31T04:30:41;17.05;;;8.90;;
12966;SDS011;6548;49.996;8.238;2022-10-31T04:33:06;21.13;;;10.27;;
12966;SDS011;6548;49.996;8.238;2022-10-31T04:35:32;13.95;;;8.75;;
12966;SDS011;6548;49.996;8.238;2022-10-31T04:37:57;16.02;;;8.73;;
12966;SDS011;6548;49.996;8.238;2022-10-31T04:40:23;15.63;;;8.95;;
12966;SDS011;6548;49.996;8.238;2022-10-31T04:42:48;12.30;;;9.30;;
12966;SDS011;6548;49.996;8.238;2022-10-31T04:45:14;15.80;;;9.20;;
12966;SDS011;6548;49.996;8.238;2022-10-31T04:47:40;16.25;;;8.20;;
12966;SDS011;6548;49.996;8.238;2022-10-31T04:50:05;14.82;;;8.27;;
12966;SDS011;6548;49.996;8.238;2022-10-31T04:52:32;13.23;;;8.98;;
12966;SDS011;6548;49.996;8.238;2022-10-31T04:55:03;12.93;;;7.13;;
12966;SDS011;6548;49.996;8.238;2022-10-31T04:57:29;10.35;;;6.72;;
12966;SDS011;6548;49.996;8.238;2022-10-31T04:59:54;12.63;;;8.32;;
12966;SDS011;6548;49.996;8.238;2022-10-31T05:02:20;13.35;;;9.40;;
12966;SDS011;6548;49.996;8.238;2022-10-31T05:04:45;13.25;;;8.00;;
12966;SDS011;6548;49.996;8.238;2022-10-31T05:07:11;12.13;;;7.47;;
12966;SDS011;6548;49.996;8.238;2022-10-31T05:09:36;13.25;;;8.38;;
12966;SDS011;6548;49.996;8.238;2022-10-31T05:12:02;14.43;;;7.88;;
12966;SDS011;6548;49.996;8.238;2022-10-31T05:14:28;18.50;;;9.02;;
12966;SDS011;6548;49.996;8.238;2022-10-31T05:16:54;14.85;;;8.27;;
12966;SDS011;6548;49.996;8.238;2022-10-31T05:19:19;16.67;;;8.38;;
12966;SDS011;6548;49.996;8.238;2022-10-31T05:21:45;15.90;;;8.50;;
12966;SDS011;6548;49.996;8.238;2022-10-31T05:24:10;15.45;;;8.40;;
12966;SDS011;6548;49.996;8.238;2022-10-31T05:26:36;14.93;;;8.95;;
12966;SDS011;6548;49.996;8.238;2022-10-31T05:29:01;12.02;;;8.80;;
12966;SDS011;6548;49.996;8.238;2022-10-31T05:31:27;14.68;;;8.35;;
12966;SDS011;6548;49.996;8.238;2022-10-31T05:33:52;11.48;;;8.43;;
12966;SDS011;6548;49.996;8.238;2022-10-31T05:36:18;15.75;;;9.05;;
12966;SDS011;6548;49.996;8.238;2022-10-31T05:38:43;13.48;;;8.13;;
12966;SDS011;6548;49.996;8.238;2022-10-31T05:41:09;13.38;;;8.48;;
12966;SDS011;6548;49.996;8.238;2022-10-31T05:43:35;13.63;;;7.75;;
12966;SDS011;6548;49.996;8.238;2022-10-31T05:46:00;12.40;;;8.35;;
12966;SDS011;6548;49.996;8.238;2022-10-31T05:48:26;14.05;;;8.32;;
12966;SDS011;6548;49.996;8.238;2022-10-31T05:50:51;13.65;;;8.38;;
12966;SDS011;6548;49.996;8.238;2022-10-31T05:53:17;12.77;;;8.18;;
12966;SDS011;6548;49.996;8.238;2022-10-31T05:55:42;12.02;;;7.85;;
12966;SDS011;6548;49.996;8.238;2022-10-31T05:58:09;12.98;;;8.70;;
12966;SDS011;6548;49.996;8.238;2022-10-31T06:00:35;15.75;;;7.40;;
12966;SDS011;6548;49.996;8.238;2022-10-31T06:03:02;13.38;;;7.53;;
12966;SDS011;6548;49.996;8.238;2022-10-31T06:05:30;15.13;;;8.50;;
12966;SDS011;6548;49.996;8.238;2022-10-31T06:07:56;11.38;;;8.02;;
12966;SDS011;6548;49.996;8.238;2022-10-31T06:10:22;13.40;;;8.02;;
12966;SDS011;6548;49.996;8.238;2022-10-31T06:12:48;11.23;;;7.03;;
12966;SDS011;6548;49.996;8.238;2022-10-31T06:15:14;11.55;;;7.60;;
12966;SDS011;6548;49.996;8.238;2022-10-31T06:17:40;10.98;;;7.07;;
12966;SDS011;6548;49.996;8.238;2022-10-31T06:20:06;13.15;;;8.05;;
12966;SDS011;6548;49.996;8.238;2022-10-31T06:22:32;15.10;;;7.65;;
12966;SDS011;6548;49.996;8.238;2022-10-31T06:24:58;14.65;;;8.93;;
12966;SDS011;6548;49.996;8.238;2022-10-31T06:27:24;13.55;;;7.68;;
12966;SDS011;6548;49.996;8.238;2022-10-31T06:29:50;13.32;;;8.05;;
12966;SDS011;6548;49.996;8.238;2022-10-31T07:03:20;14.73;;;7.45;;
12966;SDS011;6548;49.996;8.238;2022-10-31T07:05:45;15.27;;;8.48;;
12966;SDS011;6548;49.996;8.238;2022-10-31T07:08:11;12.50;;;7.28;;
12966;SDS011;6548;49.996;8.238;2022-10-31T07:10:38;16.00;;;7.93;;
12966;SDS011;6548;49.996;8.238;2022-10-31T07:13:06;18.88;;;9.15;;
12966;SDS011;6548;49.996;8.238;2022-10-31T07:15:36;13.82;;;8.48;;
12966;SDS011;6548;49.996;8.238;2022-10-31T07:18:04;14.25;;;7.40;;
12966;SDS011;6548;49.996;8.238;2022-10-31T07:20:32;12.88;;;7.45;;
12966;SDS011;6548;49.996;8.238;2022-10-31T07:22:58;13.90;;;7.43;;
12966;SDS011;6548;49.996;8.238;2022-10-31T07:25:24;10.50;;;7.65;;
12966;SDS011;6548;49.996;8.238;2022-10-31T07:27:50;12.23;;;7.45;;
12966;SDS011;6548;49.996;8.238;2022-10-31T07:30:15;14.27;;;8.52;;
12966;SDS011;6548;49.996;8.238;2022-10-31T07:32:45;11.40;;;6.85;;
12966;SDS011;6548;49.996;8.238;2022-10-31T07:35:14;13.73;;;7.43;;
12966;SDS011;6548;49.996;8.238;2022-10-31T07:37:42;14.05;;;7.53;;
12966;SDS011;6548;49.996;8.238;2022-10-31T07:40:08;11.75;;;7.05;;
12966;SDS011;6548;49.996;8.238;2022-10-31T07:42:37;11.02;;;7.28;;
12966;SDS011;6548;49.996;8.238;2022-10-31T07:45:04;14.10;;;7.32;;
12966;SDS011;6548;49.996;8.238;2022-10-31T07:48:05;14.48;;;7.97;;
12966;SDS011;6548;49.996;8.238;2022-10-31T07:50:27;13.88;;;7.43;;
12966;SDS011;6548;49.996;8.238;2022-10-31T07:53:01;15.27;;;8.17;;
12966;SDS011;6548;49.996;8.238;2022-10-31T07:55:30;19.05;;;11.80;;
12966;SDS011;6548;49.996;8.238;2022-10-31T08:00:23;9.90;;;6.32;;
12966;SDS011;6548;49.996;8.238;2022-10-31T08:02:48;10.57;;;6.22;;
12966;SDS011;6548;49.996;8.238;2022-10-31T08:05:27;11.48;;;6.68;;
12966;SDS011;6548;49.996;8.238;2022-10-31T08:07:54;10.13;;;6.20;;
12966;SDS011;6548;49.996;8.238;2022-10-31T08:10:20;14.52;;;7.38;;
12966;SDS011;6548;49.996;8.238;2022-10-31T08:12:46;9.27;;;6.57;;
12966;SDS011;6548;49.996;8.238;2022-10-31T08:15:12;10.10;;;6.65;;
12966;SDS011;6548;49.996;8.238;2022-10-31T08:17:38;9.07;;;6.13;;
12966;SDS011;6548;49.996;8.238;2022-10-31T08:20:04;11.32;;;5.72;;
12966;SDS011;6548;49.996;8.238;2022-10-31T08:22:30;17.63;;;6.63;;
12966;SDS011;6548;49.996;8.238;2022-10-31T08:24:56;12.70;;;6.40;;
12966;SDS011;6548;49.996;8.238;2022-10-31T08:27:21;13.77;;;7.88;;
12966;SDS011;6548;49.996;8.238;2022-10-31T08:29:47;14.65;;;6.85;;
12966;SDS011;6548;49.996;8.238;2022-10-31T08:32:13;9.90;;;6.07;;
12966;SDS011;6548;49.996;8.238;2022-10-31T08:34:38;15.05;;;6.13;;
12966;SDS011;6548;49.996;8.238;2022-10-31T08:37:04;9.27;;;6.03;;
12966;SDS011;6548;49.996;8.238;2022-10-31T08:39:29;10.63;;;6.70;;
12966;SDS011;6548;49.996;8.238;2022-10-31T08:41:55;15.48;;;6.50;;
12966;SDS011;6548;49.996;8.238;2022-10-31T08:44:20;13.32;;;7.07;;
12966;SDS011;6548;49.996;8.238;2022-10-31T08:46:46;9.15;;;6.32;;
12966;SDS011;6548;49.996;8.238;2022-10-31T08:49:11;14.88;;;8.07;;
12966;SDS011;6548;49.996;8.238;2022-10-31T08:51:37;13.45;;;7.82;;
12966;SDS011;6548;49.996;8.238;2022-10-31T08:54:03;11.45;;;6.82;;
12966;SDS011;6548;49.996;8.238;2022-10-31T08:56:28;11.63;;;6.95;;
12966;SDS011;6548;49.996;8.238;2022-10-31T08:58:54;11.65;;;6.85;;
12966;SDS011;6548;49.996;8.238;2022-10-31T09:01:20;14.40;;;8.27;;
12966;SDS011;6548;49.996;8.238;2022-10-31T09:03:45;13.18;;;7.45;;
12966;SDS011;6548;49.996;8.238;2022-10-31T09:06:11;13.68;;;8.35;;
12966;SDS011;6548;49.996;8.238;2022-10-31T09:08:36;16.38;;;7.40;;
12966;SDS011;6548;49.996;8.238;2022-10-31T09:11:02;14.25;;;7.63;;
12966;SDS011;6548;49.996;8.238;2022-10-31T09:13:28;13.85;;;8.13;;
12966;SDS011;6548;49.996;8.238;2022-10-31T09:15:55;16.20;;;8.30;;
12966;SDS011;6548;49.996;8.238;2022-10-31T09:18:23;12.90;;;7.70;;
12966;SDS011;6548;49.996;8.238;2022-10-31T09:20:50;12.98;;;7.07;;
12966;SDS011;6548;49.996;8.238;2022-10-31T09:23:22;14.30;;;7.90;;
12966;SDS011;6548;49.996;8.238;2022-10-31T09:25:48;18.65;;;8.90;;
12966;SDS011;6548;49.996;8.238;2022-10-31T09:28:15;13.65;;;8.98;;
12966;SDS011;6548;49.996;8.238;2022-10-31T09:30:42;16.00;;;8.60;;
12966;SDS011;6548;49.996;8.238;2022-10-31T09:33:11;14.40;;;8.13;;
12966;SDS011;6548;49.996;8.238;2022-10-31T09:35:38;17.15;;;9.23;;
12966;SDS011;6548;49.996;8.238;2022-10-31T09:38:09;17.98;;;8.75;;
12966;SDS011;6548;49.996;8.238;2022-10-31T09:43:14;15.73;;;9.93;;
12966;SDS011;6548;49.996;8.238;2022-10-31T09:51:38;16.05;;;10.27;;
12966;SDS011;6548;49.996;8.238;2022-10-31T09:56:50;19.55;;;10.68;;
12966;SDS011;6548;49.996;8.238;2022-10-31T09:59:26;18.02;;;9.38;;
12966;SDS011;6548;49.996;8.238;2022-10-31T10:04:56;17.55;;;10.15;;
12966;SDS011;6548;49.996;8.238;2022-10-31T10:10:34;16.55;;;9.35;;
12966;SDS011;6548;49.996;8.238;2022-10-31T10:13:05;18.23;;;9.30;;
12966;SDS011;6548;49.996;8.238;2022-10-31T10:26:31;14.25;;;8.50;;
12966;SDS011;6548;49.996;8.238;2022-10-31T10:29:02;16.05;;;8.68;;
12966;SDS011;6548;49.996;8.238;2022-10-31T10:31:41;13.75;;;8.15;;
12966;SDS011;6548;49.996;8.238;2022-10-31T10:36:46;15.55;;;7.93;;
12966;SDS011;6548;49.996;8.238;2022-10-31T10:42:07;15.48;;;8.05;;
12966;SDS011;6548;49.996;8.238;2022-10-31T10:44:59;15.60;;;8.25;;
12966;SDS011;6548;49.996;8.238;2022-10-31T10:47:58;13.20;;;8.57;;
12966;SDS011;6548;49.996;8.238;2022-10-31T10:50:38;16.73;;;8.55;;
12966;SDS011;6548;49.996;8.238;2022-10-31T10:53:19;15.93;;;9.60;;
12966;SDS011;6548;49.996;8.238;2022-10-31T10:59:13;15.95;;;9.75;;
12966;SDS011;6548;49.996;8.238;2022-10-31T11:01:41;18.25;;;7.90;;
12966;SDS011;6548;49.996;8.238;2022-10-31T11:04:20;17.75;;;9.85;;
12966;SDS011;6548;49.996;8.238;2022-10-31T11:07:04;19.85;;;10.05;;
12966;SDS011;6548;49.996;8.238;2022-10-31T11:09:32;17.20;;;9.18;;
12966;SDS011;6548;49.996;8.238;2022-10-31T11:11:59;22.40;;;10.75;;
12966;SDS011;6548;49.996;8.238;2022-10-31T11:14:33;18.58;;;11.00;;
12966;SDS011;6548;49.996;8.238;2022-10-31T11:17:09;17.00;;;8.88;;
12966;SDS011;6548;49.996;8.238;2022-10-31T11:19:41;15.65;;;8.90;;
12966;SDS011;6548;49.996;8.238;2022-10-31T11:22:07;15.05;;;9.38;;
12966;SDS011;6548;49.996;8.238;2022-10-31T11:24:41;15.45;;;9.25;;
12966;SDS011;6548;49.996;8.238;2022-10-31T11:27:19;27.67;;;13.68;;
12966;SDS011;6548;49.996;8.238;2022-10-31T11:29:46;15.57;;;10.00;;
12966;SDS011;6548;49.996;8.238;2022-10-31T11:32:24;18.60;;;10.93;;
12966;SDS011;6548;49.996;8.238;2022-10-31T11:34:59;18.08;;;10.93;;
12966;SDS011;6548;49.996;8.238;2022-10-31T11:37:27;25.10;;;11.23;;
12966;SDS011;6548;49.996;8.238;2022-10-31T11:39:56;19.58;;;11.07;;
12966;SDS011;6548;49.996;8.238;2022-10-31T11:42:27;25.75;;;11.25;;
12966;SDS011;6548;49.996;8.238;2022-10-31T11:44:59;17.98;;;10.73;;
12966;SDS011;6548;49.996;8.238;2022-10-31T11:47:31;21.27;;;11.35;;
12966;SDS011;6548;49.996;8.238;2022-10-31T11:50:00;19.00;;;11.52;;
12966;SDS011;6548;49.996;8.238;2022-10-31T11:52:33;16.88;;;11.65;;
12966;SDS011;6548;49.996;8.238;2022-10-31T11:57:45;15.88;;;10.43;;
12966;SDS011;6548;49.996;8.238;2022-10-31T12:00:25;16.95;;;10.00;;
12966;SDS011;6548;49.996;8.238;2022-10-31T12:06:33;17.75;;;11.55;;
12966;SDS011;6548;49.996;8.238;2022-10-31T12:08:38;23.23;;;9.85;;
12966;SDS011;6548;49.996;8.238;2022-10-31T12:16:36;17.75;;;10.27;;
12966;SDS011;6548;49.996;8.238;2022-10-31T12:22:13;16.88;;;10.35;;
12966;SDS011;6548;49.996;8.238;2022-10-31T12:25:11;15.27;;;10.18;;
12966;SDS011;6548;49.996;8.238;2022-10-31T12:33:40;17.15;;;10.68;;
12966;SDS011;6548;49.996;8.238;2022-10-31T12:36:29;16.13;;;9.32;;
12966;SDS011;6548;49.996;8.238;2022-10-31T12:39:05;15.23;;;9.05;;
12966;SDS011;6548;49.996;8.238;2022-10-31T12:41:51;17.42;;;10.80;;
12966;SDS011;6548;49.996;8.238;2022-10-31T12:49:42;18.40;;;9.52;;
12966;SDS011;6548;49.996;8.238;2022-10-31T12:58:10;14.82;;;7.35;;
12966;SDS011;6548;49.996;8.238;2022-10-31T13:01:12;15.38;;;7.93;;
12966;SDS011;6548;49.996;8.238;2022-10-31T13:06:13;13.32;;;8.30;;
12966;SDS011;6548;49.996;8.238;2022-10-31T13:08:45;13.50;;;8.82;;
12966;SDS011;6548;49.996;8.238;2022-10-31T13:11:28;14.48;;;8.93;;
12966;SDS011;6548;49.996;8.238;2022-10-31T13:14:09;15.48;;;8.68;;
12966;SDS011;6548;49.996;8.238;2022-10-31T13:16:51;16.40;;;8.98;;
12966;SDS011;6548;49.996;8.238;2022-10-31T13:22:06;12.40;;;7.78;;
12966;SDS011;6548;49.996;8.238;2022-10-31T13:24:36;21.00;;;10.70;;
12966;SDS011;6548;49.996;8.238;2022-10-31T13:27:12;16.88;;;10.35;;
12966;SDS011;6548;49.996;8.238;2022-10-31T13:32:44;19.50;;;10.35;;
12966;SDS011;6548;49.996;8.238;2022-10-31T13:35:24;15.40;;;8.50;;
12966;SDS011;6548;49.996;8.238;2022-10-31T13:37:57;32.80;;;17.38;;
12966;SDS011;6548;49.996;8.238;2022-10-31T13:40:52;22.10;;;11.15;;
12966;SDS011;6548;49.996;8.238;2022-10-31T13:43:59;19.85;;;9.48;;
12966;SDS011;6548;49.996;8.238;2022-10-31T13:46:37;12.93;;;8.82;;
12966;SDS011;6548;49.996;8.238;2022-10-31T13:49:25;9.75;;;6.93;;
12966;SDS011;6548;49.996;8.238;2022-10-31T13:54:40;12.65;;;6.93;;
12966;SDS011;6548;49.996;8.238;2022-10-31T14:00:02;12.85;;;6.90;;
12966;SDS011;6548;49.996;8.238;2022-10-31T14:02:45;14.90;;;7.05;;
12966;SDS011;6548;49.996;8.238;2022-10-31T14:05:24;16.73;;;9.32;;
12966;SDS011;6548;49.996;8.238;2022-10-31T14:07:59;14.13;;;9.50;;
12966;SDS011;6548;49.996;8.238;2022-10-31T14:13:24;17.23;;;7.97;;
12966;SDS011;6548;49.996;8.238;2022-10-31T14:16:01;13.82;;;8.18;;
12966;SDS011;6548;49.996;8.238;2022-10-31T14:18:36;16.83;;;8.95;;
12966;SDS011;6548;49.996;8.238;2022-10-31T14:23:49;21.80;;;8.82;;
12966;SDS011;6548;49.996;8.238;2022-10-31T14:26:21;16.60;;;9.13;;
12966;SDS011;6548;49.996;8.238;2022-10-31T14:28:57;12.70;;;8.23;;
12966;SDS011;6548;49.996;8.238;2022-10-31T14:34:01;17.60;;;8.57;;
12966;SDS011;6548;49.996;8.238;2022-10-31T14:36:50;14.75;;;7.90;;
12966;SDS011;6548;49.996;8.238;2022-10-31T14:39:53;14.02;;;7.63;;
12966;SDS011;6548;49.996;8.238;2022-10-31T14:45:25;14.20;;;7.72;;
12966;SDS011;6548;49.996;8.238;2022-10-31T14:50:49;11.98;;;6.75;;
12966;SDS011;6548;49.996;8.238;2022-10-31T14:55:53;9.40;;;6.28;;
12966;SDS011;6548;49.996;8.238;2022-10-31T14:58:22;11.60;;;7.18;;
12966;SDS011;6548;49.996;8.238;2022-10-31T15:01:00;16.25;;;7.35;;
12966;SDS011;6548;49.996;8.238;2022-10-31T15:03:28;12.75;;;7.72;;
12966;SDS011;6548;49.996;8.238;2022-10-31T15:06:01;12.85;;;7.63;;
12966;SDS011;6548;49.996;8.238;2022-10-31T15:11:12;13.70;;;8.15;;
12966;SDS011;6548;49.996;8.238;2022-10-31T15:13:47;17.48;;;8.35;;
12966;SDS011;6548;49.996;8.238;2022-10-31T15:16:21;11.95;;;7.93;;
12966;SDS011;6548;49.996;8.238;2022-10-31T15:18:56;16.25;;;7.68;;
12966;SDS011;6548;49.996;8.238;2022-10-31T15:21:25;18.15;;;7.82;;
12966;SDS011;6548;49.996;8.238;2022-10-31T15:23:53;14.23;;;7.38;;
12966;SDS011;6548;49.996;8.238;2022-10-31T15:26:22;12.65;;;7.43;;
12966;SDS011;6548;49.996;8.238;2022-10-31T15:29:25;12.40;;;7.53;;
12966;SDS011;6548;49.996;8.238;2022-10-31T15:34:19;11.73;;;6.88;;
12966;SDS011;6548;49.996;8.238;2022-10-31T15:37:00;17.00;;;8.77;;
12966;SDS011;6548;49.996;8.238;2022-10-31T15:39:26;19.13;;;8.30;;
12966;SDS011;6548;49.996;8.238;2022-10-31T15:41:53;17.33;;;8.00;;
12966;SDS011;6548;49.996;8.238;2022-10-31T15:44:25;16.30;;;7.50;;
12966;SDS011;6548;49.996;8.238;2022-10-31T15:47:02;14.52;;;6.97;;
12966;SDS011;6548;49.996;8.238;2022-10-31T15:52:03;13.90;;;8.40;;
12966;SDS011;6548;49.996;8.238;2022-10-31T15:54:44;17.00;;;8.38;;
12966;SDS011;6548;49.996;8.238;2022-10-31T15:57:21;15.70;;;8.63;;
12966;SDS011;6548;49.996;8.238;2022-10-31T15:59:48;13.60;;;8.75;;
12966;SDS011;6548;49.996;8.238;2022-10-31T16:02:19;13.70;;;8.35;;
12966;SDS011;6548;49.996;8.238;2022-10-31T16:04:54;18.17;;;8.95;;
12966;SDS011;6548;49.996;8.238;2022-10-31T16:07:26;17.95;;;8.45;;
12966;SDS011;6548;49.996;8.238;2022-10-31T16:09:57;15.15;;;8.13;;
12966;SDS011;6548;49.996;8.238;2022-10-31T16:12:36;16.95;;;8.43;;
12966;SDS011;6548;49.996;8.238;2022-10-31T16:15:12;23.15;;;9.60;;
12966;SDS011;6548;49.996;8.238;2022-10-31T16:17:40;18.77;;;9.05;;
12966;SDS011;6548;49.996;8.238;2022-10-31T16:20:07;16.38;;;8.80;;
12966;SDS011;6548;49.996;8.238;2022-10-31T16:22:46;17.02;;;8.60;;
12966;SDS011;6548;49.996;8.238;2022-10-31T16:25:15;16.90;;;7.82;;
12966;SDS011;6548;49.996;8.238;2022-10-31T16:27:48;14.68;;;8.10;;
12966;SDS011;6548;49.996;8.238;2022-10-31T16:30:28;17.20;;;8.85;;
12966;SDS011;6548;49.996;8.238;2022-10-31T16:33:03;14.88;;;8.52;;
12966;SDS011;6548;49.996;8.238;2022-10-31T16:35:33;16.38;;;7.78;;
12966;SDS011;6548;49.996;8.238;2022-10-31T16:38:03;16.83;;;8.23;;
12966;SDS011;6548;49.996;8.238;2022-10-31T16:40:30;16.83;;;8.57;;
12966;SDS011;6548;49.996;8.238;2022-10-31T16:42:57;13.63;;;7.35;;
12966;SDS011;6548;49.996;8.238;2022-10-31T16:45:25;16.83;;;7.85;;
12966;SDS011;6548;49.996;8.238;2022-10-31T16:48:05;16.38;;;7.60;;
12966;SDS011;6548;49.996;8.238;2022-10-31T16:50:35;12.32;;;7.43;;
12966;SDS011;6548;49.996;8.238;2022-10-31T16:53:02;14.65;;;8.38;;
12966;SDS011;6548;49.996;8.238;2022-10-31T16:55:28;14.32;;;7.75;;
12966;SDS011;6548;49.996;8.238;2022-10-31T16:57:54;15.68;;;8.15;;
12966;SDS011;6548;49.996;8.238;2022-10-31T17:00:22;12.20;;;7.75;;
12966;SDS011;6548;49.996;8.238;2022-10-31T17:02:53;13.77;;;7.95;;
12966;SDS011;6548;49.996;8.238;2022-10-31T17:05:23;13.52;;;7.53;;
12966;SDS011;6548;49.996;8.238;2022-10-31T17:07:54;18.38;;;9.20;;
12966;SDS011;6548;49.996;8.238;2022-10-31T17:10:21;16.65;;;7.85;;
12966;SDS011;6548;49.996;8.238;2022-10-31T17:12:46;14.18;;;8.00;;
12966;SDS011;6548;49.996;8.238;2022-10-31T17:15:17;16.77;;;9.48;;
12966;SDS011;6548;49.996;8.238;2022-10-31T17:17:46;19.20;;;8.90;;
12966;SDS011;6548;49.996;8.238;2022-10-31T17:20:29;20.90;;;9.70;;
12966;SDS011;6548;49.996;8.238;2022-10-31T17:22:57;16.35;;;8.55;;
12966;SDS011;6548;49.996;8.238;2022-10-31T17:25:24;16.80;;;8.57;;
12966;SDS011;6548;49.996;8.238;2022-10-31T17:27:51;15.27;;;9.18;;
12966;SDS011;6548;49.996;8.238;2022-10-31T17:30:17;20.73;;;11.40;;
12966;SDS011;6548;49.996;8.238;2022-10-31T17:32:45;21.20;;;13.77;;
12966;SDS011;6548;49.996;8.238;2022-10-31T17:35:12;16.95;;;13.95;;
12966;SDS011;6548;49.996;8.238;2022-10-31T17:37:38;19.23;;;9.90;;
12966;SDS011;6548;49.996;8.238;2022-10-31T17:40:06;15.43;;;10.02;;
12966;SDS011;6548;49.996;8.238;2022-10-31T17:42:33;14.70;;;9.07;;
12966;SDS011;6548;49.996;8.238;2022-10-31T17:44:59;19.95;;;9.43;;
12966;SDS011;6548;49.996;8.238;2022-10-31T17:47:25;16.13;;;10.02;;
12966;SDS011;6548;49.996;8.238;2022-10-31T17:49:51;15.57;;;9.18;;
12966;SDS011;6548;49.996;8.238;2022-10-31T17:52:17;20.05;;;10.30;;
12966;SDS011;6548;49.996;8.238;2022-10-31T17:54:43;17.58;;;10.52;;
12966;SDS011;6548;49.996;8.238;2022-10-31T17:57:09;22.92;;;12.23;;